createdAt,value
2023-05-02T17:18:41.021Z,5.03
2023-05-02T17:21:08.953Z,4.30
2023-05-02T17:23:36.862Z,3.67
2023-05-02T17:26:07.966Z,3.72
2023-05-02T17:28:36.624Z,3.28
2023-05-02T17:31:05.212Z,3.42
2023-05-02T17:33:33.298Z,3.03
2023-05-02T17:36:02.686Z,2.95
2023-05-02T17:38:30.545Z,3.00
2023-05-02T17:40:58.402Z,2.97
2023-05-02T17:43:26.250Z,2.33
2023-05-02T17:45:54.242Z,3.28
2023-05-02T17:48:22.185Z,2.05
2023-05-02T17:50:50.946Z,2.33
2023-05-02T17:53:20.178Z,2.55
2023-05-02T17:55:48.079Z,2.33
2023-05-02T17:58:16.067Z,2.28
2023-05-02T18:00:44.067Z,2.40
2023-05-02T18:03:12.017Z,2.33
2023-05-02T18:05:41.040Z,2.10
2023-05-02T18:08:08.903Z,2.60
2023-05-02T18:10:42.685Z,2.30
2023-05-02T18:13:10.898Z,2.05
2023-05-02T18:15:38.767Z,1.90
2023-05-02T18:18:06.774Z,1.90
2023-05-02T18:20:39.437Z,1.92
2023-05-02T18:23:07.834Z,2.38
2023-05-02T18:25:35.867Z,2.05
2023-05-02T18:28:05.145Z,2.25
2023-05-02T18:30:36.474Z,1.50
2023-05-02T18:33:04.574Z,1.80
2023-05-02T18:35:32.516Z,1.60
2023-05-02T18:38:00.420Z,2.22
2023-05-02T18:40:28.472Z,1.60
2023-05-02T18:42:56.328Z,1.65
2023-05-02T18:45:26.277Z,1.38
2023-05-02T18:47:54.167Z,1.52
2023-05-02T18:50:22.499Z,1.42
2023-05-02T18:52:50.349Z,1.50
2023-05-02T18:55:18.351Z,1.50
2023-05-02T18:57:46.856Z,1.95
2023-05-02T19:00:15.266Z,1.58
2023-05-02T19:02:44.624Z,1.17
2023-05-02T19:05:12.666Z,1.63
2023-05-02T19:07:40.530Z,1.42
2023-05-02T19:10:09.117Z,1.45
2023-05-02T19:12:37.119Z,1.40
2023-05-02T19:15:06.663Z,1.25
2023-05-02T19:17:35.209Z,1.17
2023-05-02T19:20:04.842Z,1.20
2023-05-02T19:22:34.678Z,1.20
2023-05-02T19:25:02.884Z,1.10
2023-05-02T19:27:31.260Z,0.95
2023-05-02T19:29:59.658Z,1.40
2023-05-02T19:32:27.690Z,2.03
2023-05-02T19:34:56.784Z,2.90
2023-05-02T19:37:26.018Z,6.03
2023-05-02T19:39:53.943Z,6.82
2023-05-02T19:42:21.784Z,8.00
2023-05-02T19:44:50.753Z,10.15
2023-05-02T19:47:18.695Z,11.68
2023-05-02T19:49:46.703Z,12.80
2023-05-02T19:52:14.594Z,12.85
2023-05-02T19:54:43.851Z,13.68
2023-05-02T19:57:11.784Z,13.95
2023-05-02T19:59:39.654Z,15.90
2023-05-02T20:02:09.440Z,19.58
2023-05-02T20:04:39.515Z,20.17
2023-05-02T20:07:07.424Z,19.30
2023-05-02T20:09:35.502Z,21.25
2023-05-02T20:12:05.243Z,22.17
2023-05-02T20:14:33.229Z,22.67
2023-05-02T20:17:02.202Z,20.65
2023-05-02T20:19:32.232Z,21.33
2023-05-02T20:22:00.131Z,21.63
2023-05-02T20:24:28.090Z,23.17
2023-05-02T20:26:57.757Z,22.83
2023-05-02T20:29:26.995Z,25.27
2023-05-02T20:31:56.501Z,23.05
2023-05-02T20:34:24.695Z,20.80
2023-05-02T20:36:56.516Z,22.25
2023-05-02T20:39:24.732Z,22.60
2023-05-02T20:41:52.800Z,22.90
2023-05-02T20:44:22.488Z,22.60
2023-05-02T20:46:52.551Z,23.65
2023-05-02T20:49:21.860Z,25.08
2023-05-02T20:51:50.431Z,25.70
2023-05-02T20:54:19.163Z,23.15
2023-05-02T20:56:47.084Z,24.98
2023-05-02T20:59:14.943Z,25.10
2023-05-02T21:01:42.839Z,25.55
2023-05-02T21:04:12.252Z,26.25
2023-05-02T21:06:40.240Z,25.52
2023-05-02T21:09:09.361Z,25.75
2023-05-02T21:11:37.188Z,26.95
2023-05-02T21:14:05.115Z,27.80
2023-05-02T21:16:33.126Z,28.15
2023-05-02T21:19:01.092Z,29.10
2023-05-02T21:21:30.678Z,26.30
2023-05-02T21:23:59.175Z,25.08
2023-05-02T21:26:27.130Z,28.48
2023-05-02T21:28:55.053Z,26.25
2023-05-02T21:31:22.996Z,28.58
2023-05-02T21:33:50.851Z,28.85
2023-05-02T21:36:18.750Z,29.08
2023-05-02T21:38:47.963Z,29.25
2023-05-02T21:41:16.013Z,31.05
2023-05-02T21:43:44.717Z,31.55
2023-05-02T21:46:13.039Z,30.20
2023-05-02T21:48:41.124Z,31.35
2023-05-02T21:51:09.319Z,28.10
2023-05-02T21:53:37.366Z,28.65
2023-05-02T21:56:07.866Z,29.38
2023-05-02T21:58:35.772Z,30.27
2023-05-02T22:01:03.939Z,28.42
2023-05-02T22:03:33.658Z,32.90
2023-05-02T22:06:05.770Z,30.40
2023-05-02T22:08:34.568Z,32.92
2023-05-02T22:11:09.125Z,31.25
2023-05-02T22:13:37.281Z,31.35
2023-05-02T22:16:05.662Z,29.60
2023-05-02T22:18:33.572Z,35.50
2023-05-02T22:21:02.120Z,31.42
2023-05-02T22:23:30.992Z,33.08
2023-05-02T22:25:59.463Z,33.53
2023-05-02T22:28:28.776Z,33.67
2023-05-02T22:30:56.729Z,36.13
2023-05-02T22:33:24.987Z,35.40
2023-05-02T22:35:52.897Z,36.00
2023-05-02T22:38:21.228Z,33.65
2023-05-02T22:40:49.158Z,36.83
2023-05-02T22:43:17.364Z,34.60
2023-05-02T22:45:46.624Z,38.47
2023-05-02T22:48:14.461Z,36.90
2023-05-02T22:50:43.141Z,29.95
2023-05-02T22:53:11.074Z,26.17
2023-05-02T22:55:39.647Z,25.60
2023-05-02T22:58:07.655Z,19.85
2023-05-02T23:00:35.661Z,18.67
2023-05-02T23:03:05.068Z,17.27
